createdAt,value
2022-11-08T00:00:19.357Z,12.90
2022-11-08T00:02:46.446Z,12.80
2022-11-08T00:05:32.218Z,12.80
2022-11-08T00:08:17.901Z,12.80
2022-11-08T00:11:03.524Z,12.80
2022-11-08T00:13:48.820Z,12.70
2022-11-08T00:16:15.540Z,12.70
2022-11-08T00:18:42.548Z,12.80
2022-11-08T00:21:09.259Z,12.70
2022-11-08T00:23:35.999Z,12.70
2022-11-08T00:26:02.722Z,12.70
2022-11-08T00:28:29.458Z,12.60
2022-11-08T00:30:56.217Z,12.70
2022-11-08T00:33:23.016Z,12.70
2022-11-08T00:35:49.744Z,12.70
2022-11-08T00:38:16.894Z,12.70
2022-11-08T00:40:43.957Z,12.60
2022-11-08T00:43:10.732Z,12.50
2022-11-08T00:45:37.520Z,12.60
2022-11-08T00:48:04.547Z,12.60
2022-11-08T00:50:31.335Z,12.60
2022-11-08T00:52:58.187Z,12.60
2022-11-08T00:55:24.925Z,12.60
2022-11-08T00:57:59.680Z,12.60
2022-11-08T01:00:27.852Z,12.50
2022-11-08T01:03:14.749Z,12.50
2022-11-08T01:05:41.822Z,12.50
2022-11-08T01:08:09.227Z,12.40
2022-11-08T01:10:37.009Z,12.40
2022-11-08T01:13:03.875Z,12.40
2022-11-08T01:15:36.206Z,12.50
2022-11-08T01:18:04.633Z,12.50
2022-11-08T01:20:31.378Z,12.50
2022-11-08T01:22:58.283Z,12.40
2022-11-08T01:25:25.196Z,12.50
2022-11-08T01:27:51.973Z,12.50
2022-11-08T01:30:19.112Z,12.40
2022-11-08T01:32:48.155Z,12.40
2022-11-08T01:35:14.999Z,12.40
2022-11-08T01:37:41.792Z,12.40
2022-11-08T01:40:09.351Z,12.40
2022-11-08T01:42:36.098Z,12.40
2022-11-08T01:45:06.574Z,12.40
2022-11-08T01:47:33.428Z,12.40
2022-11-08T01:50:09.180Z,12.30
2022-11-08T01:52:48.908Z,12.30
2022-11-08T01:55:36.394Z,12.30
2022-11-08T01:58:11.513Z,12.20
2022-11-08T02:00:39.529Z,12.20
2022-11-08T02:03:10.273Z,12.30
2022-11-08T02:05:37.540Z,12.30
2022-11-08T02:08:20.585Z,12.20
2022-11-08T02:10:51.359Z,12.20
2022-11-08T02:13:24.101Z,12.20
2022-11-08T02:15:51.067Z,12.20
2022-11-08T02:18:21.487Z,12.20
2022-11-08T02:20:59.276Z,12.20
2022-11-08T02:23:40.382Z,12.20
2022-11-08T02:26:07.147Z,12.10
2022-11-08T02:28:40.784Z,12.10
2022-11-08T02:31:12.554Z,12.10
2022-11-08T02:33:39.852Z,12.20
2022-11-08T02:36:09.067Z,12.10
2022-11-08T02:38:40.610Z,12.10
2022-11-08T02:41:07.389Z,12.10
2022-11-08T02:43:34.203Z,12.10
2022-11-08T02:46:01.016Z,12.10
2022-11-08T02:48:27.970Z,12.00
2022-11-08T02:50:54.870Z,12.10
2022-11-08T02:53:21.959Z,12.10
2022-11-08T02:55:48.859Z,12.00
2022-11-08T02:58:16.102Z,12.00
2022-11-08T03:00:43.242Z,12.00
2022-11-08T03:03:10.097Z,12.00
2022-11-08T03:05:37.009Z,12.00
2022-11-08T03:08:04.022Z,12.00
2022-11-08T03:10:30.856Z,12.00
2022-11-08T03:13:02.789Z,12.00
2022-11-08T03:15:29.949Z,12.00
2022-11-08T03:17:58.140Z,12.00
2022-11-08T03:20:31.196Z,12.00
2022-11-08T03:23:01.478Z,12.00
2022-11-08T03:25:28.600Z,11.90
2022-11-08T03:27:55.403Z,12.00
2022-11-08T03:30:22.248Z,11.90
2022-11-08T03:32:52.421Z,12.00
2022-11-08T03:35:20.219Z,12.10
2022-11-08T03:37:51.561Z,12.10
2022-11-08T03:40:18.901Z,12.10
2022-11-08T03:42:46.025Z,12.10
2022-11-08T03:45:13.211Z,12.10
2022-11-08T03:47:42.168Z,12.10
2022-11-08T03:50:09.940Z,12.10
2022-11-08T03:52:49.763Z,12.10
2022-11-08T03:55:18.433Z,12.10
2022-11-08T03:57:47.300Z,12.10
2022-11-08T04:00:16.561Z,12.10
2022-11-08T04:02:44.004Z,12.10
2022-11-08T04:05:12.427Z,12.00
2022-11-08T04:07:39.362Z,12.00
2022-11-08T04:10:07.670Z,12.00
2022-11-08T04:12:52.911Z,11.90
2022-11-08T04:15:23.322Z,12.00
2022-11-08T04:18:10.444Z,12.00
2022-11-08T04:21:00.587Z,12.00
2022-11-08T04:23:28.279Z,12.00
2022-11-08T04:26:00.170Z,12.00
2022-11-08T04:28:31.716Z,12.00
2022-11-08T04:31:00.968Z,12.00
2022-11-08T04:33:27.714Z,12.00
2022-11-08T04:35:54.780Z,12.00
2022-11-08T04:38:22.215Z,12.00
2022-11-08T04:40:48.977Z,11.90
2022-11-08T04:43:15.991Z,11.90
2022-11-08T04:45:42.755Z,12.00
2022-11-08T04:48:10.660Z,12.00
2022-11-08T04:50:37.415Z,12.00
2022-11-08T04:53:04.166Z,12.00
2022-11-08T04:55:30.896Z,12.00
2022-11-08T04:57:58.988Z,12.00
2022-11-08T05:00:26.368Z,12.00
2022-11-08T05:02:53.279Z,12.00
2022-11-08T05:05:20.315Z,12.00
2022-11-08T05:07:47.089Z,12.00
2022-11-08T05:10:13.985Z,12.00
2022-11-08T05:12:40.868Z,11.90
2022-11-08T05:15:08.470Z,11.90
2022-11-08T05:17:35.287Z,11.90
2022-11-08T05:20:21.174Z,11.80
2022-11-08T05:23:06.647Z,11.80
2022-11-08T05:25:33.431Z,11.90
2022-11-08T05:28:00.161Z,11.90
2022-11-08T05:30:27.037Z,11.80
2022-11-08T05:32:53.817Z,11.80
2022-11-08T05:35:22.490Z,11.90
2022-11-08T05:37:49.393Z,11.90
2022-11-08T05:40:16.258Z,11.90
2022-11-08T05:42:43.305Z,11.90
2022-11-08T05:45:10.693Z,11.90
2022-11-08T05:47:38.240Z,11.90
2022-11-08T05:50:05.596Z,11.80
2022-11-08T05:52:32.995Z,11.80
2022-11-08T05:55:00.263Z,11.90
2022-11-08T05:57:27.027Z,11.80
2022-11-08T05:59:53.781Z,11.90
2022-11-08T06:02:20.681Z,11.80
2022-11-08T06:04:47.633Z,11.80
2022-11-08T06:07:14.424Z,11.80
2022-11-08T06:09:41.268Z,11.80
2022-11-08T06:12:08.152Z,11.80
2022-11-08T06:14:35.253Z,11.80
2022-11-08T06:17:02.246Z,11.80
2022-11-08T06:19:29.044Z,11.80
2022-11-08T06:21:56.089Z,11.80
2022-11-08T06:24:22.906Z,11.80
2022-11-08T06:26:49.691Z,11.80
2022-11-08T06:29:16.451Z,11.80
2022-11-08T06:31:43.467Z,11.80
2022-11-08T06:34:10.965Z,11.80
2022-11-08T06:36:37.807Z,11.80
2022-11-08T06:39:04.862Z,11.70
2022-11-08T06:41:33.135Z,11.70
2022-11-08T06:44:00.030Z,11.70
2022-11-08T06:46:26.816Z,11.60
2022-11-08T06:48:53.658Z,11.70
2022-11-08T06:51:20.633Z,11.60
2022-11-08T06:53:48.236Z,11.70
2022-11-08T06:56:15.229Z,11.60
2022-11-08T06:58:42.136Z,11.70
2022-11-08T07:01:10.681Z,11.60
2022-11-08T07:03:38.230Z,11.60
2022-11-08T07:06:06.409Z,11.50
2022-11-08T07:08:34.209Z,11.50
2022-11-08T07:11:01.474Z,11.60
2022-11-08T07:13:28.287Z,11.60
2022-11-08T07:15:58.008Z,11.60
2022-11-08T07:18:25.262Z,11.70
2022-11-08T07:20:52.440Z,11.60
2022-11-08T07:23:19.685Z,11.70
2022-11-08T07:25:46.799Z,11.80
2022-11-08T07:28:16.808Z,11.70
2022-11-08T07:30:44.213Z,11.80
2022-11-08T07:33:11.421Z,11.80
2022-11-08T07:35:38.848Z,11.80
2022-11-08T07:38:06.090Z,11.80
2022-11-08T07:40:35.224Z,11.80
2022-11-08T07:43:17.524Z,11.90
2022-11-08T07:45:44.371Z,12.00
2022-11-08T07:48:13.719Z,12.00
2022-11-08T07:50:42.551Z,12.00
2022-11-08T07:53:10.206Z,12.00
2022-11-08T07:55:38.291Z,12.00
2022-11-08T07:58:05.691Z,12.00
2022-11-08T08:00:36.383Z,12.10
2022-11-08T08:03:05.488Z,12.00
2022-11-08T08:05:35.860Z,12.10
2022-11-08T08:08:03.864Z,12.10
2022-11-08T08:10:31.755Z,12.20
2022-11-08T08:12:58.942Z,12.30
2022-11-08T08:15:25.932Z,12.30
2022-11-08T08:17:52.860Z,12.40
2022-11-08T08:20:19.937Z,12.40
2022-11-08T08:22:51.981Z,12.50
2022-11-08T08:25:19.288Z,12.40
2022-11-08T08:27:56.799Z,12.50
2022-11-08T08:30:24.969Z,12.50
2022-11-08T08:33:14.775Z,12.60
2022-11-08T08:35:40.227Z,12.70
2022-11-08T08:38:14.041Z,12.80
2022-11-08T08:40:40.871Z,12.90
2022-11-08T08:43:07.664Z,12.90
2022-11-08T08:45:35.320Z,13.00
2022-11-08T08:48:02.849Z,13.00
2022-11-08T08:50:32.066Z,13.10
2022-11-08T08:53:00.348Z,13.10
2022-11-08T08:55:27.857Z,13.10
2022-11-08T08:57:55.030Z,13.10
2022-11-08T09:03:10.439Z,13.10
2022-11-08T09:05:38.007Z,13.20
2022-11-08T09:08:04.920Z,13.20
2022-11-08T09:10:31.696Z,13.30
2022-11-08T09:12:58.514Z,13.30
2022-11-08T09:15:25.322Z,13.40
2022-11-08T09:17:54.417Z,13.40
2022-11-08T09:20:21.411Z,13.50
2022-11-08T09:22:48.222Z,13.50
2022-11-08T09:25:15.015Z,13.60
2022-11-08T09:27:41.789Z,13.60
2022-11-08T09:30:09.424Z,13.60
2022-11-08T09:32:59.100Z,13.60
2022-11-08T09:35:23.458Z,13.70
2022-11-08T09:37:52.581Z,13.80
2022-11-08T09:40:31.661Z,13.70
2022-11-08T09:43:18.739Z,13.70
2022-11-08T09:45:47.841Z,13.90
2022-11-08T09:48:24.840Z,14.00
2022-11-08T09:50:54.212Z,14.00
2022-11-08T09:53:45.253Z,14.20
2022-11-08T09:56:21.314Z,14.10
2022-11-08T09:59:02.130Z,14.20
2022-11-08T10:01:34.917Z,14.10
2022-11-08T10:04:32.117Z,14.10
2022-11-08T10:07:15.382Z,14.20
2022-11-08T10:10:21.209Z,14.30
2022-11-08T10:13:19.741Z,14.20
2022-11-08T10:16:14.159Z,14.20
2022-11-08T10:18:55.818Z,14.20
2022-11-08T10:21:57.092Z,14.20
2022-11-08T10:24:44.032Z,14.30
2022-11-08T10:27:18.770Z,14.30
2022-11-08T10:29:46.433Z,14.30
2022-11-08T10:32:19.535Z,14.30
2022-11-08T10:35:06.051Z,14.30
2022-11-08T10:37:34.091Z,14.30
2022-11-08T10:40:22.647Z,14.30
2022-11-08T10:43:04.317Z,14.30
2022-11-08T10:45:33.568Z,14.40
2022-11-08T10:48:00.376Z,14.40
2022-11-08T10:50:51.368Z,14.40
2022-11-08T10:53:29.918Z,14.40
2022-11-08T10:56:02.119Z,14.40
2022-11-08T10:58:40.071Z,14.50
2022-11-08T11:01:16.286Z,14.50
2022-11-08T11:03:44.210Z,14.40
2022-11-08T11:06:32.616Z,14.50
2022-11-08T11:09:17.940Z,14.40
2022-11-08T11:11:45.508Z,14.50
2022-11-08T11:14:22.898Z,14.50
2022-11-08T11:17:02.631Z,14.50
2022-11-08T11:19:30.353Z,14.50
2022-11-08T11:22:06.081Z,14.50
2022-11-08T11:24:35.910Z,14.50
2022-11-08T11:27:07.566Z,14.50
2022-11-08T11:29:38.995Z,14.50
2022-11-08T11:32:34.208Z,14.50
2022-11-08T11:35:07.492Z,14.50
2022-11-08T11:37:39.179Z,14.70
2022-11-08T11:40:12.762Z,15.10
2022-11-08T11:43:06.488Z,15.10
2022-11-08T11:46:02.173Z,15.00
2022-11-08T11:48:31.457Z,15.00
2022-11-08T11:50:59.203Z,15.00
2022-11-08T11:53:29.562Z,15.10
2022-11-08T11:56:14.402Z,15.10
2022-11-08T11:59:15.647Z,15.30
2022-11-08T12:02:03.200Z,15.50
2022-11-08T12:04:41.898Z,15.50
2022-11-08T12:07:25.928Z,15.70
2022-11-08T12:10:07.824Z,15.90
2022-11-08T12:12:55.784Z,16.10
2022-11-08T12:15:49.787Z,15.80
2022-11-08T12:18:51.042Z,15.60
2022-11-08T12:21:56.316Z,15.50
2022-11-08T12:24:28.365Z,15.40
2022-11-08T12:27:09.782Z,15.40
2022-11-08T12:30:03.334Z,15.40
2022-11-08T12:33:04.423Z,15.30
2022-11-08T12:35:48.491Z,15.30
2022-11-08T12:38:39.523Z,15.20
2022-11-08T12:41:27.363Z,15.20
2022-11-08T12:44:23.206Z,15.20
2022-11-08T12:46:49.919Z,15.20
2022-11-08T12:49:46.718Z,15.20
2022-11-08T12:52:28.461Z,15.20
2022-11-08T12:55:00.776Z,15.30
2022-11-08T12:57:28.410Z,15.40
2022-11-08T13:00:05.840Z,15.40
2022-11-08T13:02:37.615Z,15.50
2022-11-08T13:05:19.369Z,15.40
2022-11-08T13:07:57.360Z,15.40
2022-11-08T13:10:37.634Z,15.50
2022-11-08T13:13:23.203Z,15.50
2022-11-08T13:16:09.888Z,15.50
2022-11-08T13:18:53.248Z,15.50
2022-11-08T13:21:25.595Z,15.50
2022-11-08T13:23:53.357Z,15.50
2022-11-08T13:26:26.174Z,15.50
2022-11-08T13:28:53.549Z,15.60
2022-11-08T13:31:20.197Z,15.60
2022-11-08T13:34:37.161Z,15.70
2022-11-08T13:37:32.654Z,15.60
2022-11-08T13:40:21.063Z,15.70
2022-11-08T13:43:20.461Z,15.80
2022-11-08T13:45:48.278Z,15.90
2022-11-08T13:48:24.423Z,16.00
2022-11-08T13:50:56.412Z,16.10
2022-11-08T13:53:23.063Z,16.00
2022-11-08T13:56:04.850Z,16.00
2022-11-08T13:58:42.743Z,15.90
2022-11-08T14:01:18.712Z,15.90
2022-11-08T14:03:48.573Z,15.90
2022-11-08T14:06:31.128Z,15.80
2022-11-08T14:09:17.904Z,15.80
2022-11-08T14:11:56.496Z,15.70
2022-11-08T14:14:44.562Z,15.80
2022-11-08T14:17:31.183Z,15.80
2022-11-08T14:20:27.944Z,15.80
2022-11-08T14:22:55.485Z,15.80
2022-11-08T14:25:28.733Z,15.70
2022-11-08T14:27:57.768Z,15.70
2022-11-08T14:30:24.718Z,15.70
2022-11-08T14:33:24.086Z,15.70
2022-11-08T14:36:07.289Z,15.70
2022-11-08T14:39:00.454Z,15.70
2022-11-08T14:41:29.348Z,15.60
2022-11-08T14:43:58.634Z,15.60
2022-11-08T14:46:35.920Z,15.50
2022-11-08T14:49:18.782Z,15.50
2022-11-08T14:51:46.297Z,15.50
2022-11-08T14:54:21.705Z,15.40
2022-11-08T14:56:50.305Z,15.40
2022-11-08T14:59:17.880Z,15.40
2022-11-08T15:01:48.611Z,15.40
2022-11-08T15:04:21.584Z,15.40
2022-11-08T15:06:57.786Z,15.30
2022-11-08T15:09:32.272Z,15.40
2022-11-08T15:12:05.491Z,15.40
2022-11-08T15:14:35.859Z,15.40
2022-11-08T15:17:03.744Z,15.40
2022-11-08T15:19:31.657Z,15.40
2022-11-08T15:22:00.199Z,15.40
2022-11-08T15:24:37.584Z,15.40
2022-11-08T15:27:16.673Z,15.40
2022-11-08T15:29:53.849Z,15.50
2022-11-08T15:32:22.311Z,15.40
2022-11-08T15:34:53.984Z,15.40
2022-11-08T15:37:27.732Z,15.40
2022-11-08T15:39:55.400Z,15.40
2022-11-08T15:42:22.369Z,15.30
2022-11-08T15:45:01.543Z,15.30
2022-11-08T15:47:38.910Z,15.30
2022-11-08T15:50:13.214Z,15.30
2022-11-08T15:52:40.017Z,15.20
2022-11-08T15:55:07.931Z,15.30
2022-11-08T15:57:41.061Z,15.20
2022-11-08T16:00:14.815Z,15.10
2022-11-08T16:02:41.657Z,15.00
2022-11-08T16:05:16.426Z,15.00
2022-11-08T16:07:44.888Z,15.00
2022-11-08T16:10:13.151Z,15.00
2022-11-08T16:12:42.742Z,15.00
2022-11-08T16:15:21.850Z,15.00
2022-11-08T16:17:48.654Z,15.00
2022-11-08T16:20:30.190Z,15.00
2022-11-08T16:22:58.420Z,14.90
2022-11-08T16:25:27.255Z,14.90
2022-11-08T16:27:58.179Z,14.80
2022-11-08T16:30:25.758Z,14.90
2022-11-08T16:32:52.961Z,14.90
2022-11-08T16:35:19.734Z,14.80
2022-11-08T16:37:47.825Z,14.90
2022-11-08T16:40:23.716Z,14.80
2022-11-08T16:42:52.325Z,14.80
2022-11-08T16:45:37.223Z,14.80
2022-11-08T16:48:13.330Z,14.80
2022-11-08T16:50:40.357Z,14.90
2022-11-08T16:53:21.303Z,14.80
2022-11-08T16:55:48.387Z,14.80
2022-11-08T16:58:15.458Z,14.80
2022-11-08T17:00:44.153Z,14.80
2022-11-08T17:03:17.332Z,14.70
2022-11-08T17:05:44.251Z,14.70
2022-11-08T17:08:11.130Z,14.70
2022-11-08T17:10:37.822Z,14.70
2022-11-08T17:13:04.882Z,14.70
2022-11-08T17:15:31.689Z,14.70
2022-11-08T17:17:59.396Z,14.70
2022-11-08T17:20:26.688Z,14.60
2022-11-08T17:22:54.014Z,14.60
2022-11-08T17:25:23.517Z,14.60
2022-11-08T17:27:51.805Z,14.60
2022-11-08T17:30:23.833Z,14.60
2022-11-08T17:32:53.543Z,14.60
2022-11-08T17:35:20.468Z,14.60
2022-11-08T17:37:47.698Z,14.60
2022-11-08T17:40:15.138Z,14.60
2022-11-08T17:42:42.084Z,14.60
2022-11-08T17:45:10.460Z,14.50
2022-11-08T17:47:37.885Z,14.50
2022-11-08T17:50:06.242Z,14.50
2022-11-08T17:52:33.505Z,14.40
2022-11-08T17:55:00.320Z,14.50
2022-11-08T17:57:27.134Z,14.50
2022-11-08T17:59:53.954Z,14.40
2022-11-08T18:02:20.838Z,14.50
2022-11-08T18:04:47.998Z,14.40
2022-11-08T18:07:15.008Z,14.40
2022-11-08T18:09:41.846Z,14.40
2022-11-08T18:12:08.659Z,14.40
2022-11-08T18:14:35.505Z,14.40
2022-11-08T18:17:02.452Z,14.40
2022-11-08T18:19:29.268Z,14.40
2022-11-08T18:21:56.048Z,14.40
2022-11-08T18:24:22.865Z,14.40
2022-11-08T18:26:49.714Z,14.40
2022-11-08T18:29:16.448Z,14.40
2022-11-08T18:31:43.152Z,14.30
2022-11-08T18:34:09.867Z,14.30
2022-11-08T18:36:36.596Z,14.30
2022-11-08T18:39:03.840Z,14.30
2022-11-08T18:41:32.644Z,14.40
2022-11-08T18:44:00.727Z,14.30
2022-11-08T18:46:32.737Z,14.40
2022-11-08T18:48:59.754Z,14.40
2022-11-08T18:51:26.591Z,14.40
2022-11-08T18:53:53.520Z,14.30
2022-11-08T18:56:21.064Z,14.40
2022-11-08T18:58:48.252Z,14.30
2022-11-08T19:01:15.386Z,14.40
2022-11-08T19:03:42.236Z,14.40
2022-11-08T19:06:09.188Z,14.30
2022-11-08T19:08:36.989Z,14.30
2022-11-08T19:11:08.499Z,14.30
2022-11-08T19:13:37.490Z,14.30
2022-11-08T19:16:07.439Z,14.30
2022-11-08T19:18:35.163Z,14.30
2022-11-08T19:21:14.060Z,14.40
2022-11-08T19:23:41.106Z,14.40
2022-11-08T19:26:11.633Z,14.40
2022-11-08T19:28:40.895Z,14.40
2022-11-08T19:31:08.768Z,14.40
2022-11-08T19:33:36.236Z,14.40
2022-11-08T19:36:06.164Z,14.40
2022-11-08T19:38:34.243Z,14.40
2022-11-08T19:41:05.854Z,14.50
2022-11-08T19:43:40.435Z,14.50
2022-11-08T19:46:13.149Z,14.50
2022-11-08T19:48:41.832Z,14.40
2022-11-08T19:51:13.668Z,14.40
2022-11-08T19:53:41.166Z,14.40
2022-11-08T19:56:11.357Z,14.40
2022-11-08T19:58:38.901Z,14.40
2022-11-08T20:01:08.931Z,14.40
2022-11-08T20:03:35.712Z,14.40
2022-11-08T20:06:02.558Z,14.40
2022-11-08T20:08:29.311Z,14.40
2022-11-08T20:10:56.115Z,14.40
2022-11-08T20:13:22.982Z,14.40
2022-11-08T20:15:49.725Z,14.50
2022-11-08T20:18:17.339Z,14.50
2022-11-08T20:20:45.286Z,14.40
2022-11-08T20:23:16.648Z,14.40
2022-11-08T20:25:43.406Z,14.40
2022-11-08T20:28:10.163Z,14.40
2022-11-08T20:30:39.059Z,14.50
2022-11-08T20:33:05.765Z,14.40
2022-11-08T20:35:35.180Z,14.40
2022-11-08T20:38:01.950Z,14.50
2022-11-08T20:40:28.654Z,14.50
2022-11-08T20:42:55.461Z,14.60
2022-11-08T20:45:22.130Z,14.60
2022-11-08T20:47:48.966Z,14.60
2022-11-08T20:50:15.858Z,14.60
2022-11-08T20:52:42.655Z,14.60
2022-11-08T20:55:09.543Z,14.60
2022-11-08T20:57:36.255Z,14.60
2022-11-08T21:00:13.156Z,14.60
2022-11-08T21:02:40.486Z,14.60
2022-11-08T21:05:07.593Z,14.60
2022-11-08T21:10:42.227Z,14.60
2022-11-08T21:13:08.264Z,14.60
2022-11-08T21:15:35.263Z,14.60
2022-11-08T21:18:02.088Z,14.50
2022-11-08T21:20:28.985Z,14.50
2022-11-08T21:22:55.726Z,14.50
2022-11-08T21:25:23.081Z,14.40
2022-11-08T21:27:49.781Z,14.50
2022-11-08T21:30:16.604Z,14.50
2022-11-08T21:32:43.357Z,14.40
2022-11-08T21:35:10.229Z,14.40
2022-11-08T21:37:36.953Z,14.30
2022-11-08T21:40:04.315Z,14.30
2022-11-08T21:42:35.322Z,14.40
2022-11-08T21:45:05.498Z,14.30
2022-11-08T21:47:32.403Z,14.30
2022-11-08T21:49:59.179Z,14.30
2022-11-08T21:52:25.949Z,14.30
2022-11-08T21:54:52.723Z,14.30
2022-11-08T21:57:19.451Z,14.30
2022-11-08T21:59:46.265Z,14.30
2022-11-08T22:02:13.113Z,14.30
2022-11-08T22:04:39.914Z,14.30
2022-11-08T22:07:06.712Z,14.20
2022-11-08T22:09:33.528Z,14.20
2022-11-08T22:12:00.314Z,14.20
2022-11-08T22:14:27.059Z,14.20
2022-11-08T22:16:53.913Z,14.20
2022-11-08T22:19:20.704Z,14.10
2022-11-08T22:21:47.579Z,14.20
2022-11-08T22:24:22.607Z,14.10
2022-11-08T22:26:51.044Z,14.10
2022-11-08T22:29:18.178Z,14.10
2022-11-08T22:31:45.244Z,14.10
2022-11-08T22:34:12.619Z,14.10
2022-11-08T22:36:44.847Z,14.00
2022-11-08T22:39:13.780Z,14.00
2022-11-08T22:41:40.672Z,14.00
2022-11-08T22:44:11.804Z,13.90
2022-11-08T22:46:39.776Z,13.90
2022-11-08T22:49:06.578Z,13.90
2022-11-08T22:51:33.311Z,13.90
2022-11-08T22:54:00.322Z,13.90
2022-11-08T22:56:27.072Z,13.90
2022-11-08T22:58:53.929Z,13.90
2022-11-08T23:01:20.659Z,13.90
2022-11-08T23:03:48.492Z,13.90
2022-11-08T23:06:15.962Z,13.90
2022-11-08T23:08:43.112Z,13.80
2022-11-08T23:11:28.735Z,13.80
2022-11-08T23:14:14.268Z,13.80
2022-11-08T23:16:43.303Z,13.80
2022-11-08T23:19:32.854Z,13.80
2022-11-08T23:22:19.028Z,13.80
2022-11-08T23:24:45.813Z,13.80
2022-11-08T23:27:33.097Z,13.90
2022-11-08T23:30:18.695Z,13.90
2022-11-08T23:32:49.986Z,13.80
2022-11-08T23:35:18.808Z,13.90
2022-11-08T23:37:46.032Z,13.80
2022-11-08T23:40:33.860Z,13.80
2022-11-08T23:43:38.012Z,13.90
2022-11-08T23:46:12.495Z,13.90
2022-11-08T23:48:40.271Z,13.80
2022-11-08T23:51:07.873Z,13.80
2022-11-08T23:53:39.958Z,13.80
2022-11-08T23:56:06.972Z,13.80
2022-11-08T23:58:34.084Z,13.80
